createdAt,value
2023-03-14T00:00:35.211Z,34.00
2023-03-14T00:03:20.706Z,32.40
2023-03-14T00:06:07.622Z,26.42
2023-03-14T00:08:52.954Z,27.45
2023-03-14T00:11:38.131Z,24.85
2023-03-14T00:14:23.312Z,33.28
2023-03-14T00:17:08.467Z,31.45
2023-03-14T00:19:54.979Z,26.23
2023-03-14T00:22:41.395Z,30.35
2023-03-14T00:25:26.376Z,33.03
2023-03-14T00:28:11.714Z,26.17
2023-03-14T00:30:57.148Z,23.80
2023-03-14T00:33:43.389Z,24.95
2023-03-14T00:36:28.702Z,21.15
2023-03-14T00:39:13.868Z,23.63
2023-03-14T00:41:59.218Z,28.55
2023-03-14T00:44:44.408Z,24.15
2023-03-14T00:47:29.438Z,25.08
2023-03-14T00:50:14.857Z,17.40
2023-03-14T00:52:59.892Z,19.83
2023-03-14T00:55:45.496Z,21.27
2023-03-14T00:58:30.623Z,21.95
2023-03-14T01:01:19.193Z,19.13
2023-03-14T01:04:04.367Z,19.70
2023-03-14T01:06:49.682Z,14.35
2023-03-14T01:09:34.971Z,20.40
2023-03-14T01:12:20.078Z,15.68
2023-03-14T01:15:05.908Z,15.07
2023-03-14T01:17:51.132Z,13.38
2023-03-14T01:20:38.251Z,8.23
2023-03-14T01:23:23.344Z,10.10
2023-03-14T01:26:13.653Z,12.05
2023-03-14T01:28:58.938Z,11.00
2023-03-14T01:31:44.378Z,10.73
2023-03-14T01:34:29.450Z,10.32
2023-03-14T01:37:14.484Z,10.45
2023-03-14T01:39:59.752Z,7.97
2023-03-14T01:42:55.938Z,6.40
2023-03-14T01:46:16.008Z,8.95
2023-03-14T01:49:10.156Z,5.30
2023-03-14T01:52:03.791Z,9.10
2023-03-14T01:54:54.130Z,8.30
2023-03-14T01:58:13.186Z,4.70
2023-03-14T02:00:59.841Z,2.20
2023-03-14T02:03:56.003Z,6.53
2023-03-14T02:07:08.409Z,4.28
2023-03-14T02:09:54.257Z,2.20
2023-03-14T02:12:40.195Z,2.88
2023-03-14T02:15:25.652Z,1.15
2023-03-14T02:18:12.613Z,0.95
2023-03-14T02:21:23.369Z,0.60
2023-03-14T02:24:26.992Z,1.00
2023-03-14T02:27:20.955Z,0.60
2023-03-14T02:30:13.154Z,0.40
2023-03-14T02:33:11.159Z,2.10
2023-03-14T02:36:02.507Z,2.15
2023-03-14T02:39:15.149Z,0.50
2023-03-14T02:42:00.320Z,1.55
2023-03-14T02:44:53.336Z,1.55
2023-03-14T02:47:44.015Z,2.17
2023-03-14T02:50:34.413Z,3.15
2023-03-14T02:53:24.697Z,1.63
2023-03-14T02:56:10.685Z,2.25
2023-03-14T02:58:56.131Z,1.25
2023-03-14T03:01:41.511Z,2.33
2023-03-14T03:04:26.855Z,6.90
2023-03-14T03:07:11.714Z,2.83
2023-03-14T03:09:56.852Z,4.55
2023-03-14T03:12:41.836Z,0.90
2023-03-14T03:15:27.684Z,3.78
2023-03-14T03:18:13.227Z,2.40
2023-03-14T03:21:01.742Z,1.85
2023-03-14T03:23:46.792Z,2.17
2023-03-14T03:26:31.881Z,1.33
2023-03-14T03:29:17.247Z,1.65
2023-03-14T03:32:02.789Z,0.73
2023-03-14T03:34:47.943Z,2.70
2023-03-14T03:37:34.070Z,3.00
2023-03-14T03:40:18.996Z,2.90
2023-03-14T03:43:04.950Z,1.63
2023-03-14T03:45:50.151Z,2.15
2023-03-14T03:48:36.162Z,3.85
2023-03-14T03:51:21.455Z,2.92
2023-03-14T03:54:06.641Z,1.42
2023-03-14T03:56:52.482Z,4.05
2023-03-14T03:59:39.714Z,1.50
2023-03-14T04:02:25.046Z,2.65
2023-03-14T04:05:10.420Z,2.20
2023-03-14T04:07:55.609Z,1.92
2023-03-14T04:10:40.583Z,1.33
2023-03-14T04:13:26.899Z,3.10
2023-03-14T04:16:21.435Z,3.17
2023-03-14T04:19:06.852Z,2.10
2023-03-14T04:21:52.022Z,4.05
2023-03-14T04:24:37.588Z,2.30
2023-03-14T04:27:22.934Z,2.25
2023-03-14T04:30:09.138Z,2.58
2023-03-14T04:32:54.334Z,2.47
2023-03-14T04:35:39.834Z,6.57
2023-03-14T04:38:25.285Z,1.50
2023-03-14T04:41:10.477Z,2.78
2023-03-14T04:43:55.528Z,4.32
2023-03-14T04:46:40.649Z,5.85
2023-03-14T04:49:26.108Z,2.92
2023-03-14T04:52:11.790Z,2.15
2023-03-14T04:54:56.759Z,3.78
2023-03-14T04:57:42.055Z,8.20
2023-03-14T05:00:27.154Z,2.85
2023-03-14T05:03:12.467Z,3.35
2023-03-14T05:05:59.522Z,4.05
2023-03-14T05:08:44.606Z,5.88
2023-03-14T05:11:30.437Z,5.75
2023-03-14T05:14:15.706Z,5.32
2023-03-14T05:17:00.881Z,11.48
2023-03-14T05:19:45.802Z,6.03
2023-03-14T05:22:31.162Z,8.30
2023-03-14T05:25:16.518Z,6.93
2023-03-14T05:28:01.891Z,8.18
2023-03-14T05:30:47.358Z,6.97
2023-03-14T05:33:32.654Z,7.50
2023-03-14T05:36:18.181Z,6.88
2023-03-14T05:39:03.895Z,4.20
2023-03-14T05:41:48.882Z,7.55
2023-03-14T05:44:34.203Z,6.25
2023-03-14T05:47:19.379Z,5.43
2023-03-14T05:50:04.829Z,6.00
2023-03-14T05:52:49.783Z,6.88
2023-03-14T05:55:34.744Z,9.73
2023-03-14T05:58:20.082Z,5.40
2023-03-14T06:01:06.938Z,6.47
2023-03-14T06:03:52.404Z,14.80
2023-03-14T06:06:37.826Z,6.55
2023-03-14T06:09:24.362Z,7.95
2023-03-14T06:12:09.367Z,9.90
2023-03-14T06:14:54.820Z,9.63
2023-03-14T06:17:40.317Z,7.53
2023-03-14T06:20:25.584Z,5.95
2023-03-14T06:23:11.041Z,9.77
2023-03-14T06:25:56.356Z,12.43
2023-03-14T06:28:41.537Z,6.57
2023-03-14T06:31:26.835Z,10.90
2023-03-14T06:34:12.043Z,9.20
2023-03-14T06:36:57.432Z,7.65
2023-03-14T06:39:42.660Z,14.80
2023-03-14T06:42:28.024Z,6.63
2023-03-14T06:45:14.227Z,10.68
2023-03-14T06:47:59.556Z,9.93
2023-03-14T06:50:44.815Z,8.05
2023-03-14T06:53:30.108Z,8.75
2023-03-14T06:56:15.393Z,8.98
2023-03-14T06:59:00.650Z,5.05
2023-03-14T07:01:45.818Z,6.28
2023-03-14T07:04:31.083Z,10.95
2023-03-14T07:07:17.530Z,8.48
2023-03-14T07:10:02.730Z,10.95
2023-03-14T07:12:48.214Z,7.72
2023-03-14T07:15:33.693Z,11.27
2023-03-14T07:18:19.041Z,7.15
2023-03-14T07:21:04.378Z,6.15
2023-03-14T07:23:49.521Z,8.05
2023-03-14T07:26:34.967Z,8.50
2023-03-14T07:29:20.396Z,11.32
2023-03-14T07:32:05.720Z,8.57
2023-03-14T07:34:51.260Z,10.93
2023-03-14T07:37:36.862Z,17.85
2023-03-14T07:40:22.124Z,10.68
2023-03-14T07:43:07.491Z,4.55
2023-03-14T07:45:58.972Z,5.63
2023-03-14T07:48:44.236Z,7.32
2023-03-14T07:51:29.594Z,8.68
2023-03-14T07:54:14.868Z,10.95
2023-03-14T07:57:01.666Z,12.55
2023-03-14T07:59:46.727Z,5.50
2023-03-14T08:02:31.946Z,8.27
2023-03-14T08:05:17.797Z,8.82
2023-03-14T08:08:03.907Z,9.10
2023-03-14T08:10:48.948Z,6.88
2023-03-14T08:13:34.136Z,8.20
2023-03-14T08:16:20.314Z,9.45
2023-03-14T08:19:05.733Z,8.35
2023-03-14T08:21:50.939Z,6.95
2023-03-14T08:24:36.279Z,7.28
2023-03-14T08:27:21.625Z,5.28
2023-03-14T08:30:08.442Z,6.75
2023-03-14T08:32:53.773Z,6.72
2023-03-14T08:35:40.417Z,6.82
2023-03-14T08:38:25.520Z,5.63
2023-03-14T08:41:11.396Z,8.70
2023-03-14T08:43:56.264Z,6.28
2023-03-14T08:46:41.619Z,5.45
2023-03-14T08:49:26.927Z,4.00
2023-03-14T08:52:12.534Z,3.88
2023-03-14T08:54:58.277Z,7.63
2023-03-14T08:57:43.325Z,6.07
2023-03-14T09:00:28.486Z,5.43
2023-03-14T09:03:14.182Z,5.95
2023-03-14T09:06:06.331Z,4.50
2023-03-14T09:08:51.518Z,3.38
2023-03-14T09:11:36.737Z,2.88
2023-03-14T09:14:23.154Z,1.17
2023-03-14T09:17:08.853Z,4.20
2023-03-14T09:19:54.376Z,2.53
2023-03-14T09:22:39.586Z,2.35
2023-03-14T09:25:24.636Z,9.23
2023-03-14T09:28:09.901Z,14.43
2023-03-14T09:30:55.533Z,10.77
2023-03-14T09:33:40.412Z,5.68
2023-03-14T09:36:25.917Z,5.05
2023-03-14T09:39:12.481Z,2.55
2023-03-14T09:42:02.381Z,4.68
2023-03-14T09:44:57.458Z,5.43
2023-03-14T09:47:56.516Z,3.10
2023-03-14T09:50:49.830Z,0.85
2023-03-14T09:53:44.392Z,4.45
2023-03-14T09:56:33.437Z,1.55
2023-03-14T09:59:18.845Z,1.23
2023-03-14T10:02:15.846Z,1.00
2023-03-14T10:05:06.663Z,3.28
2023-03-14T10:07:52.142Z,1.33
2023-03-14T10:10:37.436Z,5.60
2023-03-14T10:13:27.113Z,2.42
2023-03-14T10:16:12.651Z,5.25
2023-03-14T10:19:04.224Z,3.15
2023-03-14T10:21:55.106Z,1.10
2023-03-14T10:24:47.057Z,1.60
2023-03-14T10:27:35.095Z,2.58
2023-03-14T10:30:46.130Z,0.82
2023-03-14T10:33:34.243Z,2.00
2023-03-14T10:36:27.410Z,4.80
2023-03-14T10:39:18.764Z,3.03
2023-03-14T10:42:32.679Z,1.48
2023-03-14T10:45:29.727Z,2.80
2023-03-14T10:48:44.077Z,2.30
2023-03-14T10:51:30.815Z,3.47
2023-03-14T10:54:24.907Z,4.30
2023-03-14T10:57:12.426Z,4.47
2023-03-14T11:00:00.108Z,4.38
2023-03-14T11:03:14.932Z,5.00
2023-03-14T11:06:16.784Z,5.18
2023-03-14T11:09:12.096Z,3.67
2023-03-14T11:12:10.885Z,3.47
2023-03-14T11:15:06.698Z,9.38
2023-03-14T11:18:05.335Z,10.43
2023-03-14T11:21:16.924Z,5.43
2023-03-14T11:24:20.532Z,6.10
2023-03-14T11:27:19.555Z,7.03
2023-03-14T11:30:23.461Z,5.77
2023-03-14T11:33:16.868Z,7.80
2023-03-14T11:36:10.145Z,6.63
2023-03-14T11:39:00.777Z,6.25
2023-03-14T11:41:54.870Z,4.40
2023-03-14T11:44:41.885Z,6.70
2023-03-14T11:47:40.855Z,5.35
2023-03-14T11:50:30.915Z,6.78
2023-03-14T11:53:39.123Z,6.55
2023-03-14T11:56:32.466Z,6.57
2023-03-14T11:59:26.265Z,8.18
2023-03-14T12:02:38.514Z,4.32
2023-03-14T12:05:29.160Z,5.25
2023-03-14T12:08:30.613Z,7.50
2023-03-14T12:11:21.649Z,3.47
2023-03-14T12:14:18.933Z,4.55
2023-03-14T12:17:07.379Z,6.65
2023-03-14T12:20:26.076Z,7.78
2023-03-14T12:23:13.165Z,6.95
2023-03-14T12:26:13.688Z,6.30
2023-03-14T12:28:58.728Z,8.30
2023-03-14T12:31:47.249Z,7.18
2023-03-14T12:34:43.107Z,7.72
2023-03-14T12:37:46.150Z,7.75
2023-03-14T12:40:40.830Z,5.25
2023-03-14T12:43:29.566Z,9.65
2023-03-14T12:46:22.951Z,9.95
2023-03-14T12:49:10.231Z,5.60
2023-03-14T12:52:01.354Z,6.55
2023-03-14T12:54:58.336Z,12.15
2023-03-14T12:57:48.379Z,7.75
2023-03-14T13:00:36.636Z,6.25
2023-03-14T13:03:28.294Z,8.27
2023-03-14T13:06:13.827Z,8.48
2023-03-14T13:08:58.787Z,13.27
2023-03-14T13:11:44.200Z,9.93
2023-03-14T13:14:32.102Z,7.85
2023-03-14T13:17:34.445Z,11.00
2023-03-14T13:20:28.527Z,6.43
2023-03-14T13:23:26.307Z,12.00
2023-03-14T13:26:15.984Z,9.48
2023-03-14T13:29:01.014Z,5.47
2023-03-14T13:31:48.056Z,8.48
2023-03-14T13:34:35.424Z,8.15
2023-03-14T13:37:23.072Z,5.57
2023-03-14T13:40:27.145Z,8.23
2023-03-14T13:43:26.509Z,4.65
2023-03-14T13:46:22.914Z,7.43
2023-03-14T13:49:13.717Z,10.30
2023-03-14T13:51:59.429Z,6.82
2023-03-14T13:54:44.465Z,12.13
2023-03-14T13:57:43.200Z,7.85
2023-03-14T14:00:29.117Z,10.63
2023-03-14T14:03:14.536Z,7.40
2023-03-14T14:06:00.004Z,8.70
2023-03-14T14:08:46.167Z,6.47
2023-03-14T14:11:48.807Z,7.50
2023-03-14T14:14:50.260Z,7.15
2023-03-14T14:17:44.756Z,4.25
2023-03-14T14:20:36.033Z,5.65
2023-03-14T14:23:29.973Z,7.95
2023-03-14T14:26:18.776Z,7.22
2023-03-14T14:29:06.760Z,4.13
2023-03-14T14:32:02.600Z,6.00
2023-03-14T14:35:10.878Z,5.55
2023-03-14T14:37:55.910Z,5.68
2023-03-14T14:40:46.607Z,4.88
2023-03-14T14:43:37.359Z,7.13
2023-03-14T14:46:22.715Z,8.35
2023-03-14T14:49:14.628Z,4.43
2023-03-14T14:52:07.390Z,8.90
2023-03-14T14:54:55.755Z,3.63
2023-03-14T14:57:42.371Z,5.85
2023-03-14T15:00:28.626Z,3.97
2023-03-14T15:03:16.719Z,4.68
2023-03-14T15:06:03.188Z,6.10
2023-03-14T15:08:49.619Z,3.97
2023-03-14T15:11:34.666Z,4.72
2023-03-14T15:14:20.085Z,7.28
2023-03-14T15:17:06.794Z,7.90
2023-03-14T15:19:51.838Z,4.80
2023-03-14T15:22:36.780Z,6.35
2023-03-14T15:25:47.427Z,5.85
2023-03-14T15:28:30.856Z,5.82
2023-03-14T15:31:18.854Z,2.92
2023-03-14T15:34:04.389Z,5.40
2023-03-14T15:36:49.675Z,6.18
2023-03-14T15:39:35.974Z,3.25
2023-03-14T15:42:20.959Z,6.10
2023-03-14T15:45:07.126Z,4.43
2023-03-14T15:47:52.141Z,4.50
2023-03-14T15:50:37.493Z,2.53
2023-03-14T15:53:23.194Z,5.13
2023-03-14T15:56:12.842Z,6.63
2023-03-14T15:58:58.038Z,4.18
2023-03-14T16:01:43.146Z,3.38
2023-03-14T16:04:30.320Z,2.40
2023-03-14T16:07:15.958Z,3.60
2023-03-14T16:10:01.334Z,4.15
2023-03-14T16:12:46.739Z,3.95
2023-03-14T16:15:32.029Z,3.50
2023-03-14T16:18:21.904Z,2.92
2023-03-14T16:21:12.442Z,4.57
2023-03-14T16:23:57.650Z,3.72
2023-03-14T16:26:42.822Z,5.75
2023-03-14T16:29:28.193Z,2.20
2023-03-14T16:32:13.336Z,1.77
2023-03-14T16:34:58.657Z,4.15
2023-03-14T16:37:44.041Z,2.53
2023-03-14T16:40:29.456Z,3.95
2023-03-14T16:43:16.237Z,4.43
2023-03-14T16:46:02.081Z,2.47
2023-03-14T16:48:47.266Z,4.28
2023-03-14T16:51:33.092Z,2.60
2023-03-14T16:54:18.142Z,2.45
2023-03-14T16:57:03.627Z,3.05
2023-03-14T16:59:50.633Z,4.25
2023-03-14T17:02:35.626Z,7.82
2023-03-14T17:05:22.295Z,4.05
2023-03-14T17:08:07.477Z,4.93
2023-03-14T17:10:52.823Z,3.97
2023-03-14T17:13:39.073Z,1.45
2023-03-14T17:16:24.956Z,1.80
2023-03-14T17:19:10.102Z,4.00
2023-03-14T17:22:09.388Z,4.03
2023-03-14T17:25:01.473Z,3.15
2023-03-14T17:27:46.561Z,2.63
2023-03-14T17:30:32.147Z,4.35
2023-03-14T17:33:17.897Z,1.65
2023-03-14T17:36:04.104Z,5.40
2023-03-14T17:38:49.574Z,3.08
2023-03-14T17:41:34.844Z,4.07
2023-03-14T17:44:20.195Z,3.97
2023-03-14T17:47:06.583Z,5.50
2023-03-14T17:49:51.908Z,4.93
2023-03-14T17:52:37.768Z,2.42
2023-03-14T17:55:22.746Z,4.03
2023-03-14T17:58:07.910Z,3.53
2023-03-14T18:00:53.127Z,3.92
2023-03-14T18:03:38.768Z,4.72
2023-03-14T18:06:23.957Z,4.03
2023-03-14T18:09:09.239Z,1.73
2023-03-14T18:12:07.116Z,1.58
2023-03-14T18:14:53.703Z,4.23
2023-03-14T18:17:40.536Z,3.08
2023-03-14T18:20:25.508Z,10.27
2023-03-14T18:23:10.798Z,5.28
2023-03-14T18:25:59.146Z,4.85
2023-03-14T18:28:44.888Z,4.93
2023-03-14T18:31:31.460Z,3.83
2023-03-14T18:34:16.970Z,1.70
2023-03-14T18:37:02.547Z,2.92
2023-03-14T18:39:47.668Z,3.80
2023-03-14T18:42:32.637Z,3.42
2023-03-14T18:45:17.855Z,4.00
2023-03-14T18:48:03.893Z,3.75
2023-03-14T18:50:48.887Z,2.05
2023-03-14T18:53:33.754Z,2.45
2023-03-14T18:56:18.998Z,3.90
2023-03-14T18:59:04.253Z,4.03
2023-03-14T19:01:49.333Z,3.50
2023-03-14T19:04:34.369Z,2.97
2023-03-14T19:07:20.634Z,3.55
2023-03-14T19:10:06.316Z,2.88
2023-03-14T19:12:51.481Z,4.38
2023-03-14T19:15:36.753Z,4.43
2023-03-14T19:18:22.133Z,4.05
2023-03-14T19:21:10.334Z,5.55
2023-03-14T19:23:55.681Z,2.35
2023-03-14T19:26:40.872Z,7.15
2023-03-14T19:29:26.131Z,0.82
2023-03-14T19:32:12.375Z,3.85
2023-03-14T19:34:57.941Z,2.50
2023-03-14T19:37:45.411Z,1.55
2023-03-14T19:40:31.213Z,5.03
2023-03-14T19:43:17.215Z,3.03
2023-03-14T19:46:02.395Z,7.60
2023-03-14T19:48:48.906Z,3.70
2023-03-14T19:51:35.625Z,4.93
2023-03-14T19:54:22.520Z,2.28
2023-03-14T19:57:07.621Z,3.58
2023-03-14T19:59:52.804Z,3.40
2023-03-14T20:02:38.382Z,3.83
2023-03-14T20:05:24.683Z,5.10
2023-03-14T20:08:10.110Z,3.90
2023-03-14T20:10:55.572Z,3.00
2023-03-14T20:13:41.118Z,2.45
2023-03-14T20:16:26.856Z,6.53
2023-03-14T20:19:13.352Z,2.00
2023-03-14T20:21:58.609Z,9.65
2023-03-14T20:24:44.130Z,7.35
2023-03-14T20:27:29.160Z,4.82
2023-03-14T20:30:18.696Z,26.60
2023-03-14T20:33:04.665Z,26.35
2023-03-14T20:35:59.130Z,8.88
2023-03-14T20:38:44.442Z,7.38
2023-03-14T20:41:29.855Z,4.88
2023-03-14T20:44:15.238Z,7.22
2023-03-14T20:47:00.833Z,4.13
2023-03-14T20:49:46.292Z,6.97
2023-03-14T20:52:31.463Z,5.28
2023-03-14T20:55:16.519Z,5.95
2023-03-14T20:58:03.036Z,7.70
2023-03-14T21:00:50.321Z,3.80
2023-03-14T21:03:35.739Z,5.53
2023-03-14T21:06:22.310Z,6.03
2023-03-14T21:09:07.562Z,7.65
2023-03-14T21:11:53.072Z,7.85
2023-03-14T21:14:38.509Z,7.15
2023-03-14T21:17:23.821Z,9.80
2023-03-14T21:20:11.050Z,11.20
2023-03-14T21:22:55.999Z,10.55
2023-03-14T21:25:44.552Z,8.30
2023-03-14T21:28:30.086Z,9.38
2023-03-14T21:31:15.372Z,4.07
2023-03-14T21:34:00.719Z,7.68
2023-03-14T21:36:48.313Z,5.32
2023-03-14T21:39:33.807Z,6.93
2023-03-14T21:42:19.221Z,11.52
2023-03-14T21:45:05.145Z,9.73
2023-03-14T21:47:50.327Z,7.85
2023-03-14T21:50:35.426Z,9.60
2023-03-14T21:53:21.181Z,9.98
2023-03-14T21:56:06.900Z,15.48
2023-03-14T21:58:52.002Z,10.88
2023-03-14T22:01:37.180Z,11.23
2023-03-14T22:04:26.497Z,10.25
2023-03-14T22:07:14.986Z,10.63
2023-03-14T22:10:01.251Z,18.90
2023-03-14T22:12:46.477Z,14.15
2023-03-14T22:15:31.540Z,10.50
2023-03-14T22:18:17.691Z,6.15
2023-03-14T22:21:02.744Z,10.10
2023-03-14T22:23:49.918Z,7.60
2023-03-14T22:26:34.927Z,6.82
2023-03-14T22:29:20.171Z,4.93
2023-03-14T22:32:06.026Z,5.70
2023-03-14T22:34:50.819Z,5.68
2023-03-14T22:37:36.593Z,7.57
2023-03-14T22:40:21.776Z,7.07
2023-03-14T22:43:07.241Z,9.20
2023-03-14T22:45:59.582Z,7.05
2023-03-14T22:48:44.980Z,3.47
2023-03-14T22:51:30.074Z,7.65
2023-03-14T22:54:15.321Z,4.35
2023-03-14T22:57:00.302Z,4.55
2023-03-14T22:59:45.476Z,6.70
2023-03-14T23:02:30.622Z,5.47
2023-03-14T23:05:15.845Z,3.67
2023-03-14T23:08:01.203Z,4.15
2023-03-14T23:10:46.607Z,4.10
2023-03-14T23:13:33.480Z,4.88
2023-03-14T23:16:23.242Z,4.78
2023-03-14T23:19:15.894Z,8.25
2023-03-14T23:22:01.212Z,3.75
2023-03-14T23:24:48.692Z,4.75
2023-03-14T23:27:34.793Z,6.63
2023-03-14T23:30:21.018Z,2.80
2023-03-14T23:33:06.768Z,7.93
2023-03-14T23:35:54.393Z,7.13
2023-03-14T23:38:41.965Z,7.28
2023-03-14T23:41:27.202Z,5.07
2023-03-14T23:44:15.263Z,6.50
2023-03-14T23:47:00.204Z,6.05
2023-03-14T23:49:45.238Z,6.85
2023-03-14T23:52:30.451Z,2.90
2023-03-14T23:55:15.630Z,4.93
2023-03-14T23:58:02.839Z,8.40
